Monday, March 19, 2018, 6:24 PM GMT
Back to Local

CYYG, Charlottetown, P. E. I.

Location: , , Canada Lat: 46.283
Local Time: 6:24 PM GMT (18:24 GMT) Lon: -63.133
Time Zone: GMT Elev: 157 ft

Show me the last for .
Show Decoded

2018-03-19 18:00 METAR CYYG 191800Z 28013G19KT 15SM FEW026 BKN045 M05/M14 A2942 RMK CU1SC7 CU TR
                 SH DIST NW-NE SLP967 =
2018-03-19 17:00 METAR CYYG 191700Z 29012KT 15SM FEW025 BKN047 M06/M14 A2943 RMK SC1SC7 SC TR CF
                 ASOCTD SLP970 =
2018-03-19 16:00 METAR CYYG 191600Z 30012G17KT 15SM FEW030 FEW050 SCT260 M06/M14 A2943 RMK
                 CF1SC2CI1 CF TR SLP972 =
2018-03-19 15:00 METAR CYYG 191500Z 29011G17KT 15SM FEW030 FEW050 SCT250 M07/M14 A2944 RMK
                 CF1SC2CI1 CF TR SLP974 =
2018-03-19 14:00 METAR CYYG 191400Z 27011KT 15SM FEW030 FEW050 FEW260 M08/M14 A2944 RMK CF1SC1CI1
                 CF TR SLP975 =
2018-03-19 13:00 METAR CYYG 191300Z 27011G16KT 15SM FEW030 FEW050 FEW260 M08/M15 A2945 RMK
                 CF1SC1CI2 CF TR SC TR SLP977 =
2018-03-19 12:00 METAR CYYG 191200Z 28013G18KT 15SM FEW030 FEW260 M09/M15 A2946 RMK CU1CI2 CU TR
                 SLP979 =
2018-03-19 11:00 METAR CYYG 191100Z 26010KT 15SM FEW030 SCT250 M10/M14 A2946 RMK CF2CI1 SLP979 =
2018-03-19 10:00 METAR CYYG 191000Z 27009KT 15SM FEW025 FEW230 M10/M15 A2945 RMK SC1CI2 SC TR
                 SLP976 =
2018-03-19 09:00 METAR CYYG 190900Z 27009KT 15SM SKC M10/M15 A2945 RMK SLP977 =
2018-03-19 08:00 METAR CYYG 190800Z 27007KT 15SM SKC M10/M15 A2945 RMK SLP977 =
2018-03-19 07:00 METAR CYYG 190700Z 28009KT 15SM SKC M10/M15 A2946 RMK SLP979 =
2018-03-19 06:00 METAR CYYG 190600Z 28009KT 15SM SCT220 M10/M15 A2946 RMK CI3 SLP982 =
2018-03-19 05:00 METAR CYYG 190500Z 27008KT 15SM SCT220 M10/M15 A2947 RMK CI3 SLP984 =
2018-03-19 04:00 METAR CYYG 190400Z 29008KT 15SM SCT220 M09/M15 A2948 RMK CI3 SLP988 =
2018-03-19 03:00 METAR CYYG 190300Z 29008G16KT 15SM FEW150 BKN220 M08/M14 A2949 RMK AC1CI4 SLP992
2018-03-19 02:00 METAR CYYG 190200Z 28007KT 15SM FEW140 BKN220 M08/M14 A2950 RMK AC1CI4 SLP993 =
2018-03-19 01:00 METAR CYYG 190100Z 26004KT 15SM FEW150 BKN220 M09/M14 A2951 RMK AC1CI4 SLP998 =
2018-03-19 00:00 METAR CYYG 190000Z 26004KT 15SM FEW030 FEW150 BKN220 M08/M14 A2951 RMK SC1AC1CI4
                 SC TR SLP000 =
2018-03-18 23:00 METAR CYYG 182300Z 30004KT 15SM FEW030 FEW160 BKN210 M08/M14 A2951 RMK SC1AC1CI4
                 SLP998 =
2018-03-18 22:00 METAR CYYG 182200Z 33007KT 15SM FEW030 FEW100 SCT260 M07/M14 A2951 RMK CF1AC1CI3
                 CF TR AC TR CC ASOCTD SLP997 =
2018-03-18 21:00 METAR CYYG 182100Z 31013G19KT 15SM FEW035 FEW260 M06/M15 A2950 RMK CF1CI2 CF TR
                 CC ASOCTD SLP993 =
2018-03-18 20:00 METAR CYYG 182000Z 32011G18KT 15SM FEW030 BKN230 M07/M15 A2950 RMK SC1CI5 SC TR
                 CC ASOCTD SLP994 =
2018-03-18 19:00 METAR CYYG 181900Z 31010G16KT 15SM FEW029 BKN180 M07/M15 A2950 RMK SC1CI6 SC TR
                 CC ASOCTD SLP995 =

Support USWX by starting your Amazon purchase here.